Time;durP1;ratioP1;P1;durP2;ratioP2;P2;SDS_P1;SDS_P2;PMS_P1;PMS_P2;Temp;Humidity;BMP_temperature;BMP_pressure;BME280_temperature;BME280_humidity;BME280_pressure;Samples;Min_cycle;Max_cycle;Signal;HPM_P1;HPM_P2
2021/04/04 07:43:42;;;;;;;32.00;22.23;;;;;;;7.73;70.77;93638.16;5042695;27;20721;-81
2021/04/04 07:46:25;;;;;;;33.95;24.48;;;;;;;7.80;69.90;93624.69;5035772;27;20037;-81
2021/04/04 07:49:06;;;;;;;37.22;24.00;;;;;;;7.75;69.92;93603.69;5019571;28;20508;-82
2021/04/04 07:51:37;;;;;;;27.92;19.75;;;;;;;7.91;68.70;93623.56;5023039;27;20077;-82
2021/04/04 07:54:11;;;;;;;29.80;22.55;;;;;;;7.93;69.79;93637.22;5003285;28;20046;-81
2021/04/04 07:56:43;;;;;;;26.63;19.98;;;;;;;7.79;68.13;93613.38;5020108;28;20534;-82
2021/04/04 07:59:11;;;;;;;27.17;22.08;;;;;;;8.00;67.46;93640.31;5012969;28;20381;-82
2021/04/04 08:01:52;;;;;;;27.38;19.67;;;;;;;8.00;69.93;93647.44;5030013;28;20539;-81
2021/04/04 08:04:37;;;;;;;28.83;20.73;;;;;;;7.73;69.47;93619.72;5024885;28;20436;-82
2021/04/04 08:07:10;;;;;;;23.92;18.35;;;;;;;7.81;68.34;93644.69;5026896;28;20074;-81
2021/04/04 08:10:25;;;;;;;28.38;20.75;;;;;;;7.76;69.03;93645.50;5024353;28;20128;-82
2021/04/04 08:13:26;;;;;;;32.80;22.20;;;;;;;7.77;70.46;93638.41;5008554;27;20041;-81
2021/04/04 08:16:07;;;;;;;25.73;19.58;;;;;;;7.76;68.79;93637.63;5021085;28;20080;-81
2021/04/04 08:18:33;;;;;;;26.98;20.20;;;;;;;7.85;69.79;93635.19;5022747;28;20049;-80
2021/04/04 08:21:03;;;;;;;24.85;18.60;;;;;;;7.83;69.97;93634.66;5025091;27;20038;-82
2021/04/04 08:23:36;;;;;;;26.75;17.52;;;;;;;7.59;69.78;93599.59;5012114;28;20067;-82
2021/04/04 08:26:18;;;;;;;27.48;19.08;;;;;;;7.72;69.97;93630.56;5031755;28;20032;-81
2021/04/04 08:29:09;;;;;;;25.95;19.13;;;;;;;7.87;68.27;93642.81;5027936;28;20123;-81
2021/04/04 08:31:42;;;;;;;25.48;19.77;;;;;;;7.85;68.26;93635.19;5024901;28;20036;-82
2021/04/04 08:34:23;;;;;;;25.55;20.00;;;;;;;7.75;69.25;93620.25;5040731;27;20628;-81
2021/04/04 08:37:02;;;;;;;25.95;20.05;;;;;;;7.94;68.03;93645.88;5025678;28;20037;-81
2021/04/04 08:39:36;;;;;;;27.88;19.60;;;;;;;7.68;68.17;93613.72;5003979;28;20598;-82
2021/04/04 08:42:25;;;;;;;29.25;20.52;;;;;;;7.50;68.61;93581.00;5004444;28;20457;-81
2021/04/04 08:45:08;;;;;;;24.10;19.45;;;;;;;7.91;69.01;93634.09;4972575;28;20095;-81
2021/04/04 08:47:40;;;;;;;24.02;18.50;;;;;;;7.51;68.65;93587.03;5032445;28;20449;-81
2021/04/04 08:50:11;;;;;;;22.55;17.83;;;;;;;7.49;68.50;93610.19;5009436;27;20474;-82
2021/04/04 08:53:07;;;;;;;27.33;20.42;;;;;;;7.87;70.64;93638.31;5026931;28;20477;-81
2021/04/04 08:55:35;;;;;;;27.70;21.05;;;;;;;7.92;69.39;93627.75;4990623;28;20084;-82
2021/04/04 08:58:05;;;;;;;25.40;18.98;;;;;;;7.99;68.51;93632.69;5000744;28;20041;-81
2021/04/04 09:00:38;;;;;;;24.20;18.42;;;;;;;7.92;67.62;93614.59;5003436;28;20045;-82
2021/04/04 09:03:20;;;;;;;27.10;19.60;;;;;;;8.06;68.17;93620.00;5013545;28;20049;-80
2021/04/04 09:05:47;;;;;;;25.80;18.35;;;;;;;8.04;68.72;93622.91;4997863;28;20049;-79
2021/04/04 09:08:17;;;;;;;27.73;18.73;;;;;;;8.05;68.81;93597.38;5011813;28;20045;-80
2021/04/04 09:10:47;;;;;;;30.63;20.20;;;;;;;8.18;69.22;93589.63;5011603;28;20163;-80
2021/04/04 09:13:17;;;;;;;27.73;18.88;;;;;;;8.27;69.05;93603.75;5027541;28;20048;-80
2021/04/04 09:16:05;;;;;;;26.73;20.90;;;;;;;8.55;69.97;93612.69;5009355;28;20044;-81
2021/04/04 09:18:45;;;;;;;26.25;19.77;;;;;;;8.52;69.34;93580.88;5031351;28;20052;-81
2021/04/04 09:21:13;;;;;;;22.27;17.10;;;;;;;8.80;64.97;93598.44;5018756;28;20037;-80
2021/04/04 09:23:42;;;;;;;23.17;17.70;;;;;;;9.02;64.59;93616.38;5017116;28;20128;-81
2021/04/04 09:26:09;;;;;;;23.55;17.55;;;;;;;9.04;65.08;93595.81;5005755;28;20682;-81
2021/04/04 09:28:42;;;;;;;25.58;21.02;;;;;;;9.02;68.54;93592.66;5017718;28;20025;-81
2021/04/04 09:31:19;;;;;;;25.23;17.88;;;;;;;9.18;63.91;93599.31;5007783;28;20044;-80
2021/04/04 09:34:01;;;;;;;27.48;19.95;;;;;;;9.25;64.82;93585.75;5002727;28;20124;-82
2021/04/04 09:37:05;;;;;;;25.38;18.92;;;;;;;9.27;65.11;93602.09;5024728;28;20663;-81
2021/04/04 09:39:33;;;;;;;22.58;16.95;;;;;;;9.02;63.61;93553.13;4993213;28;20084;-81
2021/04/04 09:42:02;;;;;;;21.60;16.25;;;;;;;9.37;64.92;93601.94;5020940;28;20128;-81
2021/04/04 09:44:32;;;;;;;21.85;16.80;;;;;;;9.16;63.09;93574.28;5012925;28;20333;-80
2021/04/04 09:46:59;;;;;;;24.45;18.35;;;;;;;9.34;63.33;93597.22;5008309;28;20126;-82
2021/04/04 09:49:51;;;;;;;;;;;;;;;;;;;;;
2021/04/04 09:52:28;;;;;;;27.23;20.85;;;;;;;9.33;63.07;93598.31;5007784;28;20041;-82
2021/04/04 09:55:21;;;;;;;32.80;21.70;;;;;;;9.29;63.88;93599.94;5004504;28;20033;-83
2021/04/04 09:57:55;;;;;;;29.67;21.00;;;;;;;8.85;64.02;93552.81;4982950;28;20126;-81
2021/04/04 10:00:31;;;;;;;23.60;18.98;;;;;;;8.89;63.37;93573.06;5010845;28;20070;-81
2021/04/04 10:03:18;;;;;;;26.85;18.38;;;;;;;8.58;64.12;93551.56;5003060;28;20109;-82
2021/04/04 10:05:52;;;;;;;26.13;18.90;;;;;;;8.79;65.51;93610.09;5009588;28;20180;-81
2021/04/04 10:08:21;;;;;;;29.98;21.35;;;;;;;8.40;63.97;93562.06;5011690;28;20061;-81
2021/04/04 10:11:00;;;;;;;26.38;20.13;;;;;;;8.57;66.08;93589.50;5014227;28;20492;-82
2021/04/04 10:13:32;;;;;;;24.48;18.77;;;;;;;8.42;66.18;93580.97;4965512;28;20048;-83
2021/04/04 10:16:03;;;;;;;30.00;21.02;;;;;;;8.25;68.03;93544.56;5006886;28;20049;-82
2021/04/04 10:18:36;;;;;;;23.02;16.55;;;;;;;8.24;66.73;93582.47;5008868;27;20061;-83
2021/04/04 10:21:10;;;;;;;24.98;19.35;;;;;;;8.21;66.44;93586.41;5009004;28;20038;-82
2021/04/04 10:23:39;;;;;;;26.70;20.20;;;;;;;8.27;67.51;93593.22;5024950;28;20045;-83
2021/04/04 10:26:10;;;;;;;29.33;20.92;;;;;;;8.21;68.06;93586.41;4982152;28;20021;-83
2021/04/04 10:29:24;;;;;;;28.10;20.05;;;;;;;8.05;67.58;93565.81;4969859;28;20025;-83
2021/04/04 10:32:05;;;;;;;30.15;19.85;;;;;;;8.11;67.80;93576.00;5016215;28;20038;-83
2021/04/04 10:35:11;;;;;;;;;;;;;;;;;;;;;
2021/04/04 10:37:44;;;;;;;25.25;18.38;;;;;;;8.25;67.90;93607.72;4965833;28;20049;-83
2021/04/04 10:40:14;;;;;;;27.67;20.40;;;;;;;8.27;67.70;93601.09;5014082;28;20517;-83
2021/04/04 10:42:59;;;;;;;28.27;19.35;;;;;;;7.88;67.73;93544.38;4997523;28;20301;-84
2021/04/04 10:45:27;;;;;;;25.23;18.42;;;;;;;8.17;68.85;93619.63;4991754;28;20156;-83
2021/04/04 10:48:05;;;;;;;28.05;19.33;;;;;;;8.00;68.00;93568.50;5013425;28;20053;-81
2021/04/04 10:50:31;;;;;;;21.83;16.08;;;;;;;8.09;67.95;93598.41;4985613;28;20045;-85
2021/04/04 10:52:57;;;;;;;19.08;14.50;;;;;;;7.99;67.41;93577.44;5006678;28;20300;-85
2021/04/04 10:55:22;;;;;;;18.65;14.02;;;;;;;8.00;66.75;93586.91;5013068;28;20438;-85
2021/04/04 10:57:57;;;;;;;20.85;15.63;;;;;;;7.82;67.92;93572.56;5007635;28;20126;-83
2021/04/04 11:00:32;;;;;;;28.60;19.63;;;;;;;7.71;70.16;93561.38;5008429;28;20512;-83
2021/04/04 11:03:02;;;;;;;;;;;;;;;8.00;67.81;93616.63;4993604;28;20305;-84
2021/04/04 11:05:28;;;;;;;22.70;15.80;;;;;;;7.41;67.11;93545.84;5003756;28;19921;-85
2021/04/04 11:08:20;;;;;;;25.70;16.60;;;;;;;7.50;69.05;93577.56;5011756;28;20436;-87
2021/04/04 11:10:49;;;;;;;18.85;15.25;;;;;;;7.65;68.93;93590.63;5005951;28;20048;-84
2021/04/04 11:13:26;;;;;;;20.73;16.02;;;;;;;7.64;69.18;93595.09;5002998;28;20490;-83
2021/04/04 11:16:22;;;;;;;20.98;15.45;;;;;;;7.94;69.08;93619.59;5003021;28;20037;-83
2021/04/04 11:18:50;;;;;;;18.05;13.55;;;;;;;7.51;67.59;93555.50;4986920;28;20049;-84
2021/04/04 11:21:28;;;;;;;21.95;13.93;;;;;;;7.67;69.57;93604.28;4994630;28;21068;-83
2021/04/04 11:24:01;;;;;;;20.73;13.27;;;;;;;7.50;68.59;93553.91;5021193;28;20037;-83
2021/04/04 11:26:42;;;;;;;20.20;14.40;;;;;;;7.58;67.03;93550.69;5010599;28;20060;-84
2021/04/04 11:29:16;;;;;;;18.38;13.23;;;;;;;8.00;67.65;93611.38;5003219;28;20026;-83
2021/04/04 11:31:52;;;;;;;17.23;12.85;;;;;;;7.69;67.95;93552.19;5028307;28;20108;-83
2021/04/04 11:34:23;;;;;;;19.90;15.13;;;;;;;8.07;67.65;93598.66;5012353;28;20242;-84
2021/04/04 11:36:49;;;;;;;18.95;14.85;;;;;;;7.76;67.79;93542.13;5006773;28;20480;-84
2021/04/04 11:39:15;;;;;;;15.60;12.75;;;;;;;7.88;65.99;93529.38;5028992;28;20068;-83
2021/04/04 11:42:00;;;;;;;18.20;13.57;;;;;;;7.89;66.54;93541.47;5006795;28;20387;-83
2021/04/04 11:44:37;;;;;;;15.13;12.15;;;;;;;8.28;67.05;93573.72;5011884;28;20438;-83
2021/04/04 11:47:22;;;;;;;15.13;12.38;;;;;;;7.97;67.57;93513.75;5006907;28;20174;-83
2021/04/04 11:50:00;;;;;;;17.42;13.70;;;;;;;8.37;67.10;93542.31;5012291;28;20033;-83
2021/04/04 11:52:25;;;;;;;16.00;12.38;;;;;;;8.58;65.59;93567.38;4981298;28;20049;-83
2021/04/04 11:54:53;;;;;;;15.50;12.63;;;;;;;8.23;65.77;93552.72;5004250;28;20038;-82
2021/04/04 11:57:21;;;;;;;16.10;12.80;;;;;;;8.26;65.69;93556.63;5009814;28;20046;-82
2021/04/04 11:59:49;;;;;;;14.00;11.50;;;;;;;8.11;66.75;93547.03;5012004;28;20517;-83
2021/04/04 12:02:22;;;;;;;16.25;13.20;;;;;;;8.25;67.50;93555.09;5007713;28;20057;-83
2021/04/04 12:05:11;;;;;;;15.55;12.85;;;;;;;7.94;66.74;93501.19;5010178;28;20095;-84
2021/04/04 12:08:00;;;;;;;13.77;11.77;;;;;;;8.19;66.84;93541.19;4931446;28;20046;-83
2021/04/04 12:10:28;;;;;;;15.82;13.25;;;;;;;8.02;67.01;93513.72;5012021;28;20037;-84
2021/04/04 12:13:00;;;;;;;14.65;11.43;;;;;;;8.21;65.81;93540.88;5002239;28;20124;-83
2021/04/04 12:15:32;;;;;;;17.67;12.85;;;;;;;8.04;66.30;93536.06;5002501;28;20071;-84
2021/04/04 12:18:03;;;;;;;21.27;16.50;;;;;;;8.11;67.27;93525.22;5012422;28;20078;-85
2021/04/04 12:20:46;;;;;;;21.30;16.05;;;;;;;8.01;65.98;93488.50;5015655;28;20072;-83
2021/04/04 12:23:15;;;;;;;31.13;15.25;;;;;;;8.12;67.06;93518.88;5003243;28;20025;-84
2021/04/04 12:25:50;;;;;;;16.70;13.10;;;;;;;8.06;67.04;93514.75;5016161;28;20679;-84
2021/04/04 12:28:17;;;;;;;20.40;14.55;;;;;;;7.91;67.26;93499.91;5009577;28;20045;-82
2021/04/04 12:30:43;;;;;;;22.85;18.23;;;;;;;7.75;67.54;93485.31;5015531;28;20050;-83
2021/04/04 12:33:17;;;;;;;23.75;18.85;;;;;;;8.11;69.82;93533.88;5010050;28;20056;-84
2021/04/04 12:35:53;;;;;;;21.27;16.27;;;;;;;7.87;67.17;93495.47;5016234;28;20682;-83
2021/04/04 12:38:24;;;;;;;20.20;15.23;;;;;;;8.00;66.34;93511.38;5025449;28;20056;-84
2021/04/04 12:40:56;;;;;;;43.10;18.30;;;;;;;7.87;68.34;93490.22;5020630;28;20029;-84
2021/04/04 12:43:21;;;;;;;23.08;17.38;;;;;;;7.87;68.82;93501.50;4999065;28;20104;-84
2021/04/04 12:45:50;;;;;;;24.65;17.17;;;;;;;7.82;69.31;93483.13;4994780;28;20631;-83
2021/04/04 12:48:34;;;;;;;61.70;23.52;;;;;;;7.87;69.31;93464.66;4998723;28;20701;-85
2021/04/04 12:51:02;;;;;;;181.65;31.40;;;;;;;7.97;67.47;93474.31;5020724;28;20049;-85
2021/04/04 12:54:08;;;;;;;21.92;16.58;;;;;;;8.09;68.12;93514.19;4963985;28;20047;-86
2021/04/04 12:56:36;;;;;;;21.88;16.73;;;;;;;7.64;67.43;93462.81;4970091;28;20979;-85
2021/04/04 12:59:16;;;;;;;22.65;16.98;;;;;;;7.81;68.72;93489.47;4986611;28;20113;-83
2021/04/04 13:01:56;;;;;;;24.50;17.42;;;;;;;7.75;66.99;93459.81;4996233;28;20026;-84
2021/04/04 13:04:25;;;;;;;21.15;16.83;;;;;;;7.95;66.56;93477.22;4950690;28;20105;-82
2021/04/04 13:06:55;;;;;;;27.33;20.40;;;;;;;8.05;67.13;93494.75;4987378;28;20044;-83
2021/04/04 13:09:21;;;;;;;33.60;23.05;;;;;;;8.05;70.67;93508.69;4999319;28;20038;-82
2021/04/04 13:11:55;;;;;;;37.05;25.88;;;;;;;7.93;70.11;93495.13;4984382;28;20057;-83
2021/04/04 13:14:26;;;;;;;31.85;19.33;;;;;;;7.86;67.32;93478.13;4983668;28;20332;-83
2021/04/04 13:17:15;;;;;;;24.38;18.98;;;;;;;7.83;68.62;93474.19;4986954;28;20489;-84
2021/04/04 13:19:41;;;;;;;23.10;18.90;;;;;;;7.66;67.45;93495.66;4986682;28;20506;-83
2021/04/04 13:22:30;;;;;;;24.30;16.35;;;;;;;7.44;68.51;93491.91;4912496;28;20118;-84
2021/04/04 13:25:18;;;;;;;21.35;12.93;;;;;;;7.34;69.11;93483.06;4942432;28;20478;-84
2021/04/04 13:27:47;;;;;;;15.60;11.88;;;;;;;7.37;69.31;93498.28;4936783;28;20512;-83
2021/04/04 13:30:26;;;;;;;20.50;14.55;;;;;;;7.08;70.07;93442.28;4940763;28;20593;-84
2021/04/04 13:32:52;;;;;;;27.92;19.60;;;;;;;7.43;70.51;93487.75;4987024;28;20057;-84
2021/04/04 13:35:23;;;;;;;31.63;21.10;;;;;;;7.59;69.75;93489.94;4973284;28;20059;-84
2021/04/04 13:37:49;;;;;;;34.20;21.17;;;;;;;7.57;71.07;93481.56;4988193;28;20563;-84
2021/04/04 13:40:15;;;;;;;28.10;18.55;;;;;;;7.34;71.73;93451.50;4986739;28;20085;-83
2021/04/04 13:42:53;;;;;;;25.13;15.90;;;;;;;7.31;71.52;93453.91;4952277;28;20051;-84
2021/04/04 13:45:38;;;;;;;23.75;17.48;;;;;;;7.26;71.51;93433.72;4985734;28;20046;-84
2021/04/04 13:48:08;;;;;;;26.08;16.17;;;;;;;7.63;70.93;93463.88;4984959;28;20878;-84
2021/04/04 13:50:38;;;;;;;17.80;12.45;;;;;;;7.63;70.43;93469.13;4989280;28;20037;-84
2021/04/04 13:53:42;;;;;;;15.82;11.70;;;;;;;7.61;69.89;93456.28;4976074;28;20030;-84
2021/04/04 13:56:16;;;;;;;14.43;10.93;;;;;;;7.37;68.75;93398.41;4987561;28;20029;-83
2021/04/04 13:58:50;;;;;;;16.23;12.30;;;;;;;7.25;68.84;93395.34;4992213;28;20032;-83
2021/04/04 14:01:33;;;;;;;15.68;11.82;;;;;;;7.48;69.85;93440.38;4985486;28;20541;-82
2021/04/04 14:04:10;;;;;;;16.73;12.35;;;;;;;7.63;70.91;93463.88;4960273;28;20041;-82
2021/04/04 14:06:47;;;;;;;17.70;14.05;;;;;;;7.22;70.97;93409.06;4988761;28;20068;-83
2021/04/04 14:09:30;;;;;;;16.95;13.35;;;;;;;7.33;70.28;93418.41;4981926;28;20862;-82
2021/04/04 14:11:56;;;;;;;19.27;15.23;;;;;;;7.68;72.43;93476.97;4967954;28;20057;-83
2021/04/04 14:14:22;;;;;;;17.77;14.38;;;;;;;7.63;72.29;93453.34;4979142;28;20507;-83
2021/04/04 14:16:48;;;;;;;27.45;18.15;;;;;;;7.65;69.96;93456.50;4989055;28;20029;-84
2021/04/04 14:19:15;;;;;;;22.52;17.45;;;;;;;7.44;71.07;93418.31;4984018;28;20953;-83
2021/04/04 14:21:41;;;;;;;22.52;17.33;;;;;;;7.73;70.36;93466.41;4989450;28;20042;-82
2021/04/04 14:24:10;;;;;;;19.83;15.20;;;;;;;7.49;71.35;93431.41;4982459;28;20044;-83
2021/04/04 14:26:39;;;;;;;20.92;15.45;;;;;;;7.54;69.56;93436.59;4991862;28;20061;-82
2021/04/04 14:29:08;;;;;;;20.95;16.70;;;;;;;7.37;71.00;93445.72;4985175;28;20442;-83
2021/04/04 14:31:36;;;;;;;31.42;22.38;;;;;;;7.25;71.42;93433.97;5004651;28;20040;-82
2021/04/04 14:34:06;;;;;;;29.17;20.80;;;;;;;7.22;70.95;93434.56;4981345;28;20049;-83
2021/04/04 14:36:32;;;;;;;37.50;26.75;;;;;;;7.37;70.45;93450.97;4984214;28;20153;-82
2021/04/04 14:39:11;;;;;;;46.60;33.28;;;;;;;7.47;71.28;93444.06;4976163;28;20054;-83
2021/04/04 14:41:37;;;;;;;26.58;20.75;;;;;;;7.44;70.38;93419.09;4982802;28;20046;-82
2021/04/04 14:46:38;;;;;;;33.10;24.20;;;;;;;7.44;70.40;93437.50;4987787;28;20597;-82
2021/04/04 14:49:07;;;;;;;87.07;28.40;;;;;;;7.50;70.95;93454.00;4962859;28;20528;-82
2021/04/04 14:51:32;;;;;;;31.77;25.63;;;;;;;7.37;73.03;93435.19;4975386;28;20220;-83
2021/04/04 14:53:58;;;;;;;36.05;27.67;;;;;;;7.39;70.40;93438.31;4983033;28;20040;-82
2021/04/04 14:56:24;;;;;;;46.47;32.80;;;;;;;7.19;70.22;93420.09;5002018;28;20452;-81
2021/04/04 14:58:50;;;;;;;47.28;31.42;;;;;;;7.39;70.77;93474.34;4990476;28;20033;-82
2021/04/04 15:01:32;;;;;;;36.38;28.05;;;;;;;7.19;70.07;93427.19;4988649;28;20526;-82
2021/04/04 15:04:03;;;;;;;41.63;32.15;;;;;;;6.92;71.15;93402.22;4983620;28;20062;-82
2021/04/04 15:06:32;;;;;;;56.90;36.67;;;;;;;7.32;69.98;93448.38;4980674;28;20081;-82
2021/04/04 15:09:01;;;;;;;49.08;34.80;;;;;;;7.06;70.11;93423.38;4983861;28;20128;-82
2021/04/04 15:11:27;;;;;;;45.70;31.05;;;;;;;7.30;70.05;93450.50;4988343;28;20402;-82
2021/04/04 15:13:52;;;;;;;31.92;23.08;;;;;;;7.38;69.76;93441.22;4991017;28;20038;-84
2021/04/04 15:16:18;;;;;;;27.10;18.02;;;;;;;7.19;69.13;93421.94;4911918;28;20046;-81
2021/04/04 15:18:43;;;;;;;20.50;15.02;;;;;;;6.77;69.14;93397.06;4988158;28;20804;-81
2021/04/04 15:21:09;;;;;;;17.92;13.57;;;;;;;6.67;71.01;93420.00;4984533;28;20057;-82
2021/04/04 15:23:34;;;;;;;23.17;16.25;;;;;;;6.85;72.70;93448.22;4982075;28;20057;-82
2021/04/04 15:25:59;;;;;;;14.30;11.50;;;;;;;6.94;71.79;93457.06;4983230;28;20157;-82
2021/04/04 15:28:26;;;;;;;11.88;9.88;;;;;;;6.83;71.11;93434.59;4986367;28;20117;-82
2021/04/04 15:30:52;;;;;;;12.30;9.88;;;;;;;7.00;69.84;93445.47;4981637;28;20671;-82
2021/04/04 15:33:22;;;;;;;9.35;6.65;;;;;;;6.91;70.64;93432.16;4989317;28;20506;-83
2021/04/04 15:35:55;;;;;;;68.50;31.30;;;;;;;6.81;71.59;93407.81;4983604;28;20124;-83
2021/04/04 15:38:24;;;;;;;22.90;14.27;;;;;;;6.83;71.54;93405.69;4980791;28;20505;-82
2021/04/04 15:40:53;;;;;;;24.42;14.20;;;;;;;6.83;70.19;93424.09;4987594;28;20038;-81
2021/04/04 15:43:22;;;;;;;32.78;23.33;;;;;;;6.73;71.01;93424.16;4974099;28;20116;-82
2021/04/04 15:45:51;;;;;;;16.92;11.50;;;;;;;6.89;69.79;93423.75;4985377;28;20050;-82
2021/04/04 15:48:19;;;;;;;13.07;10.52;;;;;;;7.10;70.94;93445.41;4987821;28;20494;-83
2021/04/04 15:50:46;;;;;;;23.25;18.02;;;;;;;7.03;72.17;93423.94;4985003;28;20050;-83
2021/04/04 15:53:21;;;;;;;25.05;19.85;;;;;;;6.84;73.35;93399.41;4964147;28;20708;-82
2021/04/04 15:55:46;;;;;;;123.25;38.90;;;;;;;7.08;75.01;93446.75;4988644;28;20069;-82
2021/04/04 15:58:12;;;;;;;27.95;21.33;;;;;;;7.03;74.41;93439.69;4984635;28;21484;-83
2021/04/04 16:00:41;;;;;;;29.33;21.92;;;;;;;7.25;73.01;93461.06;4984139;28;20466;-83
2021/04/04 16:03:06;;;;;;;129.27;32.40;;;;;;;6.80;72.87;93414.91;4999454;28;20130;-83
2021/04/04 16:05:39;;;;;;;27.10;21.30;;;;;;;7.12;73.96;93485.34;4991099;28;20272;-82
2021/04/04 16:08:05;;;;;;;25.15;18.98;;;;;;;6.97;73.35;93446.03;4987700;28;20518;-82
2021/04/04 16:10:39;;;;;;;21.95;16.67;;;;;;;6.86;72.50;93434.03;4989628;28;20038;-84
2021/04/04 16:13:14;;;;;;;24.83;18.98;;;;;;;6.73;72.18;93426.78;4933217;28;20123;-84
2021/04/04 16:15:44;;;;;;;;;;;;;;;7.05;71.64;93468.31;4942340;28;20042;-83
2021/04/04 16:18:13;;;;;;;39.25;27.75;;;;;;;6.62;71.64;93412.16;4952316;28;19932;-83
2021/04/04 16:20:47;;;;;;;50.65;32.53;;;;;;;6.57;72.34;93404.31;4975734;28;20526;-82
2021/04/04 16:23:19;;;;;;;33.75;25.10;;;;;;;6.57;72.56;93407.72;4950934;28;20112;-82
2021/04/04 16:25:47;;;;;;;46.45;30.80;;;;;;;6.79;73.26;93444.09;4960455;28;20034;-83
2021/04/04 16:28:12;;;;;;;26.05;19.55;;;;;;;6.73;73.55;93424.94;4980227;28;20214;-82
2021/04/04 16:30:59;;;;;;;28.42;20.42;;;;;;;6.91;73.51;93455.00;4989184;28;20121;-83
2021/04/04 16:33:26;;;;;;;60.00;27.75;;;;;;;6.74;72.23;93423.09;4968249;28;20101;-82
2021/04/04 16:35:54;;;;;;;39.08;26.95;;;;;;;6.61;72.32;93416.59;4980668;28;20412;-84
2021/04/04 16:38:23;;;;;;;44.53;27.15;;;;;;;6.74;72.65;93457.25;4985891;28;20046;-83
2021/04/04 16:40:52;;;;;;;34.83;25.38;;;;;;;6.42;72.50;93436.69;5005800;28;20029;-83
2021/04/04 16:43:20;;;;;;;37.47;27.98;;;;;;;6.61;72.76;93471.75;4982573;28;20070;-83
2021/04/04 16:45:46;;;;;;;26.67;19.65;;;;;;;6.60;72.44;93477.28;4987728;28;20045;-82
2021/04/04 16:48:12;;;;;;;31.60;23.42;;;;;;;6.45;72.76;93476.28;4982044;28;20053;-83
2021/04/04 16:50:47;;;;;;;26.00;19.83;;;;;;;6.13;73.72;93431.31;4988643;28;20072;-84
2021/04/04 16:53:12;;;;;;;35.78;20.98;;;;;;;6.26;73.78;93464.84;4981899;28;21442;-82
2021/04/04 16:55:38;;;;;;;31.35;22.25;;;;;;;6.32;73.93;93479.50;4984249;28;20104;-82
2021/04/04 16:58:04;;;;;;;29.25;23.05;;;;;;;6.18;73.87;93459.38;4982763;28;20037;-82
2021/04/04 17:00:32;;;;;;;26.65;20.17;;;;;;;6.41;73.45;93492.84;4983927;28;20208;-83
2021/04/04 17:03:04;;;;;;;25.20;19.60;;;;;;;6.14;74.21;93464.38;4980006;28;20108;-83
2021/04/04 17:05:30;;;;;;;27.65;20.73;;;;;;;6.06;76.16;93451.78;4986378;28;20050;-82
2021/04/04 17:07:56;;;;;;;23.83;18.50;;;;;;;6.16;74.71;93475.38;4984308;28;20402;-82
2021/04/04 17:10:25;;;;;;;24.10;18.02;;;;;;;6.18;73.67;93475.91;4985861;28;20025;-83
2021/04/04 17:12:50;;;;;;;29.95;20.60;;;;;;;5.96;73.96;93459.72;4941030;28;20117;-82
2021/04/04 17:15:18;;;;;;;26.17;19.90;;;;;;;5.99;73.42;93457.34;4983382;28;20049;-83
2021/04/04 17:17:49;;;;;;;95.30;40.85;;;;;;;5.98;74.08;93475.97;4962027;28;20681;-83
2021/04/04 17:20:31;;;;;;;35.85;27.00;;;;;;;5.66;73.35;93426.50;4983923;28;21511;-83
2021/04/04 17:22:56;;;;;;;70.32;47.53;;;;;;;5.98;73.60;93489.09;4979179;28;20122;-85
2021/04/04 17:25:22;;;;;;;45.15;31.85;;;;;;;5.68;72.71;93451.38;4987866;28;20845;-89
2021/04/04 17:27:47;;;;;;;66.20;40.30;;;;;;;5.89;73.01;93482.81;4983016;28;20466;-87
2021/04/04 17:30:23;;;;;;;48.83;33.30;;;;;;;5.89;73.33;93509.03;4982097;28;20053;-86
2021/04/04 17:32:51;;;;;;;34.20;24.35;;;;;;;5.65;74.41;93483.38;4984133;28;20050;-84
2021/04/04 17:35:17;;;;;;;29.38;21.63;;;;;;;5.86;73.64;93512.19;4987361;28;21598;-87
2021/04/04 17:37:42;;;;;;;26.27;18.98;;;;;;;5.85;73.80;93503.53;4993208;28;20030;-87
